createdAt,value
2018-12-03T00:01:26.880Z,24.90
2018-12-03T00:04:06.191Z,24.60
2018-12-03T00:06:40.098Z,24.67
2018-12-03T00:09:13.918Z,25.30
2018-12-03T00:11:47.909Z,24.67
2018-12-03T00:14:22.000Z,26.27
2018-12-03T00:16:55.956Z,25.53
2018-12-03T00:19:30.020Z,25.97
2018-12-03T00:22:03.748Z,26.83
2018-12-03T00:24:37.734Z,26.53
2018-12-03T00:27:11.775Z,26.73
2018-12-03T00:29:45.584Z,26.23
2018-12-03T00:32:19.444Z,26.97
2018-12-03T00:34:53.468Z,26.60
2018-12-03T00:37:27.233Z,26.20
2018-12-03T00:40:01.077Z,24.43
2018-12-03T00:42:34.958Z,25.23
2018-12-03T00:45:09.522Z,24.30
2018-12-03T00:47:43.485Z,24.90
2018-12-03T00:50:17.366Z,25.23
2018-12-03T00:52:51.875Z,24.23
2018-12-03T00:55:26.651Z,23.00
2018-12-03T00:58:00.716Z,22.53
2018-12-03T01:00:34.579Z,23.00
2018-12-03T01:03:08.630Z,21.60
2018-12-03T01:05:42.503Z,20.80
2018-12-03T01:08:16.503Z,20.07
2018-12-03T01:10:50.378Z,17.53
2018-12-03T01:13:24.136Z,19.47
2018-12-03T01:15:57.893Z,18.33
2018-12-03T01:18:32.094Z,17.37
2018-12-03T01:21:06.719Z,16.67
2018-12-03T01:23:40.664Z,16.70
2018-12-03T01:26:14.725Z,17.27
2018-12-03T01:28:48.728Z,17.43
2018-12-03T01:31:23.910Z,16.30
2018-12-03T01:33:58.102Z,16.60
2018-12-03T01:36:35.941Z,16.20
2018-12-03T01:39:09.842Z,16.03
2018-12-03T01:41:43.771Z,16.10
2018-12-03T01:44:17.910Z,15.23
2018-12-03T01:46:51.753Z,14.90
2018-12-03T01:49:25.749Z,15.27
2018-12-03T01:51:59.642Z,15.10
2018-12-03T01:54:33.372Z,13.93
2018-12-03T01:57:07.250Z,13.13
2018-12-03T01:59:41.039Z,13.27
2018-12-03T02:02:15.017Z,12.80
2018-12-03T02:04:48.749Z,13.00
2018-12-03T02:07:22.821Z,13.90
2018-12-03T02:09:56.718Z,13.90
2018-12-03T02:12:30.786Z,13.17
2018-12-03T02:15:05.122Z,13.23
2018-12-03T02:17:39.047Z,12.60
2018-12-03T02:20:14.480Z,11.53
2018-12-03T02:22:48.216Z,10.67
2018-12-03T02:25:21.936Z,10.60
2018-12-03T02:27:55.778Z,10.13
2018-12-03T02:30:29.725Z,9.00
2018-12-03T02:33:03.472Z,9.17
2018-12-03T02:35:37.448Z,7.40
2018-12-03T02:38:11.268Z,7.33
2018-12-03T02:40:45.200Z,6.87
2018-12-03T02:43:18.932Z,6.43
2018-12-03T02:45:53.015Z,6.57
2018-12-03T02:48:26.886Z,6.87
2018-12-03T02:51:00.729Z,6.37
2018-12-03T02:53:34.594Z,7.10
2018-12-03T02:56:08.294Z,7.40
2018-12-03T02:58:41.981Z,7.33
2018-12-03T03:01:15.822Z,7.83
2018-12-03T03:03:49.656Z,7.20
2018-12-03T03:06:23.457Z,7.47
2018-12-03T03:08:57.192Z,7.27
2018-12-03T03:11:30.886Z,7.47
2018-12-03T03:14:04.845Z,7.47
2018-12-03T03:16:38.707Z,7.17
2018-12-03T03:19:12.492Z,7.10
2018-12-03T03:21:46.142Z,7.13
2018-12-03T03:24:19.956Z,7.10
2018-12-03T03:26:53.734Z,6.70
2018-12-03T03:29:27.829Z,6.90
2018-12-03T03:32:01.742Z,6.33
2018-12-03T03:34:35.597Z,6.10
2018-12-03T03:37:09.506Z,5.83
2018-12-03T03:39:43.754Z,5.67
2018-12-03T03:42:17.538Z,5.42
2018-12-03T03:44:51.470Z,5.00
2018-12-03T03:47:25.333Z,4.67
2018-12-03T03:49:59.268Z,4.40
2018-12-03T03:52:33.442Z,4.43
2018-12-03T03:55:07.594Z,5.10
2018-12-03T03:57:41.405Z,4.50
2018-12-03T04:00:15.891Z,4.10
2018-12-03T04:02:52.417Z,4.37
2018-12-03T04:05:26.358Z,3.77
2018-12-03T04:08:00.392Z,4.20
2018-12-03T04:10:34.432Z,3.77
2018-12-03T04:15:48.999Z,3.67
2018-12-03T04:18:22.977Z,4.00
2018-12-03T04:20:57.011Z,3.53
2018-12-03T04:23:31.031Z,3.13
2018-12-03T04:26:05.046Z,4.00
2018-12-03T04:28:38.970Z,3.60
2018-12-03T04:31:12.800Z,3.40
2018-12-03T04:33:46.502Z,3.63
2018-12-03T04:36:23.882Z,3.67
2018-12-03T04:39:02.116Z,3.30
2018-12-03T04:41:36.102Z,3.30
2018-12-03T04:44:10.151Z,3.40
2018-12-03T04:46:44.100Z,3.60
2018-12-03T04:49:18.101Z,3.13
2018-12-03T04:51:52.832Z,3.57
2018-12-03T04:54:26.761Z,3.13
2018-12-03T04:57:00.659Z,3.17
2018-12-03T04:59:34.639Z,3.37
2018-12-03T05:02:08.561Z,3.17
2018-12-03T05:04:42.571Z,3.57
2018-12-03T05:07:19.793Z,3.60
2018-12-03T05:09:53.740Z,3.63
2018-12-03T05:12:27.565Z,3.10
2018-12-03T05:15:01.451Z,3.33
2018-12-03T05:17:35.387Z,3.17
2018-12-03T05:20:12.159Z,3.30
2018-12-03T05:22:46.166Z,3.40
2018-12-03T05:25:19.982Z,3.07
2018-12-03T05:27:54.072Z,3.10
2018-12-03T05:30:28.110Z,3.27
2018-12-03T05:33:02.049Z,2.73
2018-12-03T05:35:35.840Z,3.00
2018-12-03T05:38:09.827Z,3.23
2018-12-03T05:40:44.429Z,3.20
2018-12-03T05:43:18.260Z,3.23
2018-12-03T05:45:52.529Z,2.90
2018-12-03T05:48:26.454Z,3.40
2018-12-03T05:51:00.314Z,3.10
2018-12-03T05:53:34.091Z,3.20
2018-12-03T05:56:07.808Z,2.97
2018-12-03T05:58:41.672Z,3.40
2018-12-03T06:01:15.440Z,3.17
2018-12-03T06:03:49.337Z,3.30
2018-12-03T06:06:24.761Z,3.57
2018-12-03T06:08:58.575Z,3.83
2018-12-03T06:11:32.286Z,3.43
2018-12-03T06:14:06.215Z,3.67
2018-12-03T06:16:40.370Z,4.00
2018-12-03T06:19:14.313Z,4.40
2018-12-03T06:21:52.401Z,4.23
2018-12-03T06:24:26.561Z,4.53
2018-12-03T06:27:00.309Z,4.37
2018-12-03T06:29:34.346Z,4.20
2018-12-03T06:32:08.145Z,4.47
2018-12-03T06:34:49.886Z,4.27
2018-12-03T06:37:23.861Z,4.17
2018-12-03T06:39:57.687Z,4.17
2018-12-03T06:42:31.375Z,4.03
2018-12-03T06:45:05.496Z,4.27
2018-12-03T06:47:40.326Z,4.37
2018-12-03T06:50:14.124Z,4.20
2018-12-03T06:52:47.873Z,4.50
2018-12-03T06:55:21.734Z,4.83
2018-12-03T06:57:55.355Z,5.10
2018-12-03T07:00:29.493Z,4.50
2018-12-03T07:03:06.729Z,4.70
2018-12-03T07:05:40.663Z,4.83
2018-12-03T07:08:14.488Z,5.07
2018-12-03T07:10:48.210Z,5.47
2018-12-03T07:13:22.586Z,5.10
2018-12-03T07:15:56.984Z,5.57
2018-12-03T07:18:31.094Z,5.50
2018-12-03T07:21:05.495Z,5.30
2018-12-03T07:23:39.438Z,5.67
2018-12-03T07:26:13.270Z,5.70
2018-12-03T07:28:46.986Z,5.93
2018-12-03T07:31:20.878Z,6.03
2018-12-03T07:33:54.566Z,5.60
2018-12-03T07:36:28.369Z,6.10
2018-12-03T07:39:02.278Z,5.83
2018-12-03T07:41:36.316Z,5.80
2018-12-03T07:44:10.265Z,6.47
2018-12-03T07:46:44.373Z,6.20
2018-12-03T07:49:18.162Z,5.90
2018-12-03T07:51:52.165Z,5.80
2018-12-03T07:54:26.039Z,5.77
2018-12-03T07:56:59.908Z,5.20
2018-12-03T07:59:33.789Z,5.43
2018-12-03T08:02:07.886Z,5.10
2018-12-03T08:04:41.600Z,5.20
2018-12-03T08:07:15.420Z,5.57
2018-12-03T08:09:49.510Z,4.73
2018-12-03T08:12:23.494Z,4.70
2018-12-03T08:14:57.332Z,4.67
2018-12-03T08:17:31.053Z,4.53
2018-12-03T08:20:06.269Z,4.47
2018-12-03T08:22:40.209Z,4.40
2018-12-03T08:25:14.500Z,4.20
2018-12-03T08:27:48.501Z,4.00
2018-12-03T08:30:22.395Z,4.20
2018-12-03T08:32:56.261Z,4.57
2018-12-03T08:35:30.105Z,3.47
2018-12-03T08:38:04.126Z,4.07
2018-12-03T08:40:38.134Z,4.40
2018-12-03T08:43:12.051Z,3.90
2018-12-03T08:45:45.962Z,4.10
2018-12-03T08:48:19.753Z,3.90
2018-12-03T08:50:53.690Z,3.70
2018-12-03T08:53:27.328Z,3.70
2018-12-03T08:56:01.242Z,4.50
2018-12-03T08:58:34.893Z,4.43
2018-12-03T09:01:10.582Z,4.50
2018-12-03T09:03:45.765Z,4.20
2018-12-03T09:06:19.614Z,4.77
2018-12-03T09:08:53.668Z,4.67
2018-12-03T09:11:27.435Z,5.00
2018-12-03T09:14:01.236Z,4.83
2018-12-03T09:16:35.129Z,5.30
2018-12-03T09:19:08.891Z,5.13
2018-12-03T09:21:42.513Z,5.43
2018-12-03T09:24:16.332Z,5.60
2018-12-03T09:26:50.123Z,5.00
2018-12-03T09:29:23.929Z,4.77
2018-12-03T09:31:57.851Z,4.03
2018-12-03T09:34:31.541Z,4.80
2018-12-03T09:37:05.660Z,4.70
2018-12-03T09:39:39.653Z,4.50
2018-12-03T09:42:13.492Z,3.83
2018-12-03T09:44:47.396Z,4.50
2018-12-03T09:47:21.077Z,4.33
2018-12-03T09:49:55.099Z,4.80
2018-12-03T09:52:29.694Z,4.33
2018-12-03T09:55:03.649Z,4.70
2018-12-03T09:57:37.705Z,4.93
2018-12-03T10:00:16.333Z,4.93
2018-12-03T10:02:50.267Z,4.53
2018-12-03T10:05:25.212Z,4.17
2018-12-03T10:07:59.063Z,4.60
2018-12-03T10:10:32.817Z,4.50
2018-12-03T10:13:07.386Z,4.43
2018-12-03T10:15:41.068Z,4.60
2018-12-03T10:18:14.704Z,5.20
2018-12-03T10:20:50.391Z,5.13
2018-12-03T10:23:24.213Z,4.17
2018-12-03T10:25:58.835Z,4.67
2018-12-03T10:28:32.570Z,4.47
2018-12-03T10:31:09.444Z,4.70
2018-12-03T10:33:43.319Z,4.77
2018-12-03T10:36:17.046Z,4.63
2018-12-03T10:38:50.905Z,5.13
2018-12-03T10:41:26.057Z,4.77
2018-12-03T10:44:00.849Z,5.20
2018-12-03T10:46:34.568Z,5.13
2018-12-03T10:49:08.755Z,5.03
2018-12-03T10:51:42.594Z,5.20
2018-12-03T10:54:16.510Z,4.83
2018-12-03T10:56:50.320Z,4.83
2018-12-03T10:59:24.271Z,5.10
2018-12-03T11:02:03.447Z,4.93
2018-12-03T11:04:44.288Z,5.33
2018-12-03T11:07:18.013Z,5.00
2018-12-03T11:09:51.885Z,6.43
2018-12-03T11:12:25.771Z,5.77
2018-12-03T11:14:59.575Z,5.70
2018-12-03T11:17:33.412Z,5.20
2018-12-03T11:20:07.930Z,5.23
2018-12-03T11:22:41.960Z,5.33
2018-12-03T11:25:16.494Z,5.77
2018-12-03T11:27:50.826Z,5.57
2018-12-03T11:30:24.723Z,6.10
2018-12-03T11:32:58.616Z,6.17
2018-12-03T11:35:32.483Z,5.60
2018-12-03T11:38:10.825Z,6.23
2018-12-03T11:40:51.106Z,6.63
2018-12-03T11:43:25.915Z,6.73
2018-12-03T11:45:59.986Z,6.00
2018-12-03T11:48:33.815Z,5.73
2018-12-03T11:51:07.487Z,6.17
2018-12-03T11:53:41.676Z,6.30
2018-12-03T11:56:15.824Z,5.93
2018-12-03T11:58:49.758Z,5.80
2018-12-03T12:01:23.615Z,6.03
2018-12-03T12:03:57.538Z,5.80
2018-12-03T12:06:31.448Z,5.97
2018-12-03T12:09:07.803Z,6.13
2018-12-03T12:11:41.606Z,6.13
2018-12-03T12:14:21.882Z,6.27
2018-12-03T12:16:55.691Z,6.20
2018-12-03T12:19:29.552Z,5.77
2018-12-03T12:22:04.304Z,5.90
2018-12-03T12:24:38.210Z,5.80
2018-12-03T12:27:12.032Z,6.53
2018-12-03T12:29:46.025Z,6.50
2018-12-03T12:32:19.892Z,6.77
2018-12-03T12:34:53.826Z,5.93
2018-12-03T12:37:27.737Z,6.53
2018-12-03T12:40:01.609Z,6.43
2018-12-03T12:42:35.652Z,6.50
2018-12-03T12:45:12.287Z,6.27
2018-12-03T12:47:46.328Z,5.80
2018-12-03T12:50:20.380Z,5.90
2018-12-03T12:52:54.293Z,6.13
2018-12-03T12:55:28.131Z,6.13
2018-12-03T12:58:01.962Z,5.90
2018-12-03T13:00:35.773Z,6.03
2018-12-03T13:03:09.680Z,6.00
2018-12-03T13:05:43.500Z,6.10
2018-12-03T13:08:17.489Z,6.20
2018-12-03T13:10:51.556Z,6.00
2018-12-03T13:13:25.419Z,5.43
2018-12-03T13:15:59.152Z,5.70
2018-12-03T13:18:33.179Z,5.63
2018-12-03T13:21:07.005Z,5.37
2018-12-03T13:23:40.653Z,5.07
2018-12-03T13:26:14.746Z,5.37
2018-12-03T13:28:48.597Z,5.10
2018-12-03T13:31:24.570Z,5.33
2018-12-03T13:33:58.294Z,5.40
2018-12-03T13:36:32.261Z,5.33
2018-12-03T13:39:07.926Z,5.20
2018-12-03T13:41:41.976Z,5.37
2018-12-03T13:44:15.773Z,5.80
2018-12-03T13:46:49.918Z,5.30
2018-12-03T13:49:23.741Z,5.30
2018-12-03T13:51:57.594Z,5.07
2018-12-03T13:54:31.729Z,5.37
2018-12-03T13:57:05.758Z,5.17
2018-12-03T13:59:39.699Z,4.67
2018-12-03T14:02:13.519Z,5.10
2018-12-03T14:04:53.361Z,5.07
2018-12-03T14:07:29.760Z,4.90
2018-12-03T14:23:27.587Z,4.87
2018-12-03T14:26:01.622Z,4.90
2018-12-03T14:28:35.784Z,5.00
2018-12-03T14:31:12.110Z,4.93
2018-12-03T14:33:46.162Z,4.63
2018-12-03T14:36:23.635Z,4.50
2018-12-03T14:38:57.629Z,4.73
2018-12-03T14:41:32.072Z,5.20
2018-12-03T14:44:05.861Z,5.27
2018-12-03T14:46:40.531Z,5.20
2018-12-03T14:49:14.485Z,4.97
2018-12-03T14:51:48.480Z,5.00
2018-12-03T14:54:22.258Z,5.30
2018-12-03T14:56:56.299Z,5.30
2018-12-03T14:59:30.164Z,5.47
2018-12-03T15:02:03.919Z,5.60
2018-12-03T15:04:37.917Z,5.67
2018-12-03T15:07:11.835Z,5.10
2018-12-03T15:09:45.652Z,4.97
2018-12-03T15:12:19.448Z,4.90
2018-12-03T15:14:53.272Z,5.30
2018-12-03T15:17:27.131Z,5.17
2018-12-03T15:20:01.025Z,5.33
2018-12-03T15:22:38.433Z,5.13
2018-12-03T15:25:15.565Z,5.10
2018-12-03T15:30:30.004Z,5.43
2018-12-03T15:33:04.023Z,4.90
2018-12-03T15:35:40.842Z,5.10
2018-12-03T15:38:15.059Z,5.07
2018-12-03T15:40:49.112Z,4.87
2018-12-03T15:43:23.005Z,5.30
2018-12-03T15:45:56.927Z,5.30
2018-12-03T15:48:30.836Z,4.63
2018-12-03T15:51:07.163Z,5.40
2018-12-03T15:53:40.944Z,5.00
2018-12-03T15:56:15.038Z,4.83
2018-12-03T15:58:50.635Z,4.80
2018-12-03T16:01:24.907Z,5.10
2018-12-03T16:03:59.162Z,5.23
2018-12-03T16:06:34.001Z,4.53
2018-12-03T16:09:10.141Z,4.70
2018-12-03T16:11:44.180Z,5.10
2018-12-03T16:14:18.288Z,4.90
2018-12-03T16:16:52.393Z,4.70
2018-12-03T16:19:26.372Z,4.70
2018-12-03T16:22:00.370Z,4.47
2018-12-03T16:24:34.227Z,4.70
2018-12-03T16:27:08.412Z,4.50
2018-12-03T16:29:42.882Z,4.83
2018-12-03T16:32:16.717Z,4.50
2018-12-03T16:34:50.739Z,4.73
2018-12-03T16:40:15.731Z,4.47
2018-12-03T16:42:49.639Z,4.10
2018-12-03T16:45:23.661Z,4.30
2018-12-03T16:47:57.531Z,4.50
2018-12-03T16:50:31.508Z,4.67
2018-12-03T16:53:05.388Z,5.07
2018-12-03T16:55:39.355Z,4.33
2018-12-03T16:58:13.080Z,3.77
2018-12-03T17:00:47.022Z,4.40
2018-12-03T17:03:20.773Z,3.90
2018-12-03T17:05:54.565Z,4.33
2018-12-03T17:08:28.434Z,4.00
2018-12-03T17:11:03.177Z,3.73
2018-12-03T17:13:36.889Z,3.37
2018-12-03T17:16:10.798Z,3.50
2018-12-03T17:18:44.594Z,3.03
2018-12-03T17:21:24.585Z,3.43
2018-12-03T17:24:14.174Z,2.67
2018-12-03T17:26:48.144Z,2.83
2018-12-03T17:29:22.213Z,2.90
2018-12-03T17:31:56.024Z,2.67
2018-12-03T17:34:29.864Z,3.00
2018-12-03T17:37:03.993Z,3.00
2018-12-03T17:39:37.891Z,2.73
2018-12-03T17:42:11.974Z,3.00
2018-12-03T17:44:46.072Z,3.20
2018-12-03T17:47:19.721Z,2.93
2018-12-03T17:49:53.620Z,2.90
2018-12-03T17:52:27.638Z,3.00
2018-12-03T17:55:01.654Z,2.87
2018-12-03T17:57:35.474Z,2.70
2018-12-03T18:00:11.482Z,2.97
2018-12-03T18:02:45.629Z,2.80
2018-12-03T18:05:19.720Z,3.00
2018-12-03T18:07:54.018Z,2.67
2018-12-03T18:10:28.041Z,2.60
2018-12-03T18:13:01.949Z,2.47
2018-12-03T18:15:35.939Z,2.70
2018-12-03T18:18:09.684Z,2.90
2018-12-03T18:20:43.367Z,2.73
2018-12-03T18:23:17.451Z,2.20
2018-12-03T18:25:51.761Z,2.60
2018-12-03T18:28:26.340Z,2.60
2018-12-03T18:31:00.059Z,2.50
2018-12-03T18:33:34.042Z,2.57
2018-12-03T18:36:07.931Z,1.87
2018-12-03T18:38:41.714Z,2.20
2018-12-03T18:41:15.523Z,2.00
2018-12-03T18:43:49.595Z,2.20
2018-12-03T18:46:23.526Z,1.90
2018-12-03T18:48:59.346Z,2.23
2018-12-03T18:51:33.849Z,1.90
2018-12-03T18:54:07.609Z,1.90
2018-12-03T18:56:41.468Z,1.80
2018-12-03T18:59:15.475Z,1.40
2018-12-03T19:01:49.270Z,1.30
2018-12-03T19:04:23.195Z,1.60
2018-12-03T19:06:57.073Z,1.43
2018-12-03T19:09:30.939Z,1.40
2018-12-03T19:12:04.699Z,1.57
2018-12-03T19:14:38.395Z,1.47
2018-12-03T19:17:12.246Z,1.20
2018-12-03T19:19:46.281Z,1.20
2018-12-03T19:22:20.174Z,1.40
2018-12-03T19:24:54.050Z,1.03
2018-12-03T19:27:28.010Z,1.20
2018-12-03T19:30:01.854Z,0.90
2018-12-03T19:32:35.849Z,1.00
2018-12-03T19:35:09.757Z,1.03
2018-12-03T19:37:43.492Z,1.00
2018-12-03T19:40:17.270Z,1.00
2018-12-03T19:42:51.206Z,1.20
2018-12-03T19:45:25.076Z,1.10
2018-12-03T19:47:58.857Z,4.17
2018-12-03T19:50:32.687Z,1.43
2018-12-03T19:53:06.612Z,1.20
2018-12-03T19:55:40.715Z,1.37
2018-12-03T19:58:20.622Z,1.43
2018-12-03T20:00:54.569Z,1.50
2018-12-03T20:03:28.549Z,1.57
2018-12-03T20:06:03.360Z,1.50
2018-12-03T20:08:37.503Z,1.80
2018-12-03T20:11:11.513Z,1.63
2018-12-03T20:13:46.390Z,1.80
2018-12-03T20:16:20.576Z,1.80
2018-12-03T20:18:54.345Z,1.80
2018-12-03T20:21:28.580Z,1.70
2018-12-03T20:24:04.129Z,1.70
2018-12-03T20:26:56.119Z,1.67
2018-12-03T20:29:47.052Z,1.50
2018-12-03T20:32:30.700Z,1.80
2018-12-03T20:35:39.765Z,1.80
2018-12-03T20:38:15.485Z,1.40
2018-12-03T20:40:55.229Z,1.53
2018-12-03T20:43:30.036Z,1.70
2018-12-03T20:46:07.252Z,1.40
2018-12-03T20:48:45.711Z,1.20
2018-12-03T20:51:22.376Z,1.50
2018-12-03T20:53:56.083Z,1.30
2018-12-03T20:56:30.004Z,1.43
2018-12-03T20:59:03.682Z,1.40
2018-12-03T21:01:39.846Z,1.30
2018-12-03T21:04:13.530Z,1.30
2018-12-03T21:06:47.566Z,1.40
2018-12-03T21:09:21.305Z,1.37
2018-12-03T21:11:55.372Z,1.50
2018-12-03T21:14:34.520Z,1.50
2018-12-03T21:17:08.431Z,1.20
2018-12-03T21:19:42.811Z,1.60
2018-12-03T21:22:16.491Z,1.40
2018-12-03T21:24:50.275Z,1.23
2018-12-03T21:27:24.098Z,1.23
2018-12-03T21:29:58.184Z,1.30
2018-12-03T21:32:32.177Z,1.27
2018-12-03T21:35:06.528Z,1.50
2018-12-03T21:37:40.417Z,1.30
2018-12-03T21:40:14.701Z,1.40
2018-12-03T21:42:48.708Z,1.50
2018-12-03T21:45:22.552Z,1.40
2018-12-03T21:47:56.579Z,1.57
2018-12-03T21:50:30.305Z,1.30
2018-12-03T21:53:04.207Z,1.40
2018-12-03T21:55:37.888Z,1.50
2018-12-03T21:58:11.795Z,1.40
2018-12-03T22:00:45.503Z,1.50
2018-12-03T22:03:19.745Z,1.40
2018-12-03T22:05:53.677Z,1.67
2018-12-03T22:08:27.705Z,1.50
2018-12-03T22:11:01.863Z,1.40
2018-12-03T22:13:35.662Z,1.60
2018-12-03T22:16:09.731Z,1.50
2018-12-03T22:18:43.541Z,1.60
2018-12-03T22:21:17.331Z,1.50
2018-12-03T22:23:51.289Z,1.50
2018-12-03T22:26:25.178Z,1.60
2018-12-03T22:28:59.899Z,1.70
2018-12-03T22:31:33.552Z,1.50
2018-12-03T22:34:07.606Z,1.80
2018-12-03T22:36:41.837Z,1.73
2018-12-03T22:39:15.747Z,1.67
2018-12-03T22:41:49.619Z,1.40
2018-12-03T22:44:24.675Z,1.83
2018-12-03T22:46:58.257Z,1.90
2018-12-03T22:49:32.106Z,1.83
2018-12-03T22:52:06.348Z,2.00
2018-12-03T22:54:40.235Z,1.90
2018-12-03T22:57:14.182Z,2.00
2018-12-03T22:59:48.058Z,2.10
2018-12-03T23:02:21.814Z,1.80
2018-12-03T23:04:55.762Z,1.90
2018-12-03T23:07:29.517Z,2.07
2018-12-03T23:10:03.301Z,1.80
2018-12-03T23:12:37.130Z,2.10
2018-12-03T23:15:11.770Z,1.77
2018-12-03T23:17:45.434Z,2.17
2018-12-03T23:20:19.412Z,2.20
2018-12-03T23:22:53.439Z,2.30
2018-12-03T23:25:27.173Z,1.90
2018-12-03T23:28:00.850Z,2.10
2018-12-03T23:30:34.612Z,1.83
2018-12-03T23:33:08.518Z,2.00
2018-12-03T23:35:42.476Z,2.40
2018-12-03T23:38:16.352Z,2.20
2018-12-03T23:40:50.153Z,2.30
2018-12-03T23:43:24.648Z,2.60
2018-12-03T23:45:58.478Z,2.30
2018-12-03T23:48:32.089Z,2.40
2018-12-03T23:51:05.935Z,2.57
2018-12-03T23:53:40.138Z,2.47
2018-12-03T23:56:14.459Z,2.67
2018-12-03T23:58:48.278Z,2.50
